EJA420 KSLC-KSAN
Flight info
| Callsign | EJA420 |
|---|---|
| Flight time | N/A |
| Altitude | 40000 |
| Route | ZIONZ1 EHK LAKRR Q73 LVELL LUCKI1 |
| Aircraft | CL60/M-SADE3FGHIJ3J4J7P2RWXY/HB1D1 |
Departure
| Time | 2026-05-05 03:50 |
|---|---|
| Airport | Salt Lake City International Airport (KSLC) |
Arrival
| Time | N/A |
|---|---|
| Airport | San Diego International Airport (KSAN) |
| Time | Latitude | Longitude | Altitude | Speed | Heading |
|---|---|---|---|---|---|
| 2026-05-05 03:17 | 40.77602 | -111.95950 | 4229 ft | 0 kts | 180° |
| 2026-05-05 03:39 | 40.77590 | -111.95951 | 4229 ft | 4 kts | 183° |
| 2026-05-05 03:39 | 40.77584 | -111.95952 | 4229 ft | 0 kts | 186° |
| 2026-05-05 03:39 | 40.77572 | -111.95976 | 4229 ft | 5 kts | 262° |
| 2026-05-05 03:40 | 40.77571 | -111.95987 | 4229 ft | 0 kts | 271° |
| 2026-05-05 03:41 | 40.77571 | -111.95991 | 4229 ft | 2 kts | 273° |
| 2026-05-05 03:41 | 40.77576 | -111.96044 | 4229 ft | 7 kts | 291° |
| 2026-05-05 03:42 | 40.77630 | -111.96064 | 4229 ft | 10 kts | 0° |
| 2026-05-05 03:42 | 40.77709 | -111.96064 | 4229 ft | 12 kts | 0° |
| 2026-05-05 03:42 | 40.77809 | -111.96064 | 4228 ft | 16 kts | 1° |
| 2026-05-05 03:42 | 40.77859 | -111.96029 | 4228 ft | 0 kts | 44° |
| 2026-05-05 03:43 | 40.77859 | -111.96028 | 4228 ft | 2 kts | 43° |
| 2026-05-05 03:43 | 40.77933 | -111.96001 | 4228 ft | 16 kts | 356° |
| 2026-05-05 03:43 | 40.78055 | -111.96004 | 4227 ft | 18 kts | 1° |
| 2026-05-05 03:43 | 40.78189 | -111.96002 | 4227 ft | 18 kts | 360° |
| 2026-05-05 03:44 | 40.78319 | -111.96003 | 4227 ft | 23 kts | 359° |
| 2026-05-05 03:44 | 40.78490 | -111.96003 | 4226 ft | 25 kts | 0° |
| 2026-05-05 03:44 | 40.78669 | -111.96004 | 4225 ft | 26 kts | 359° |
| 2026-05-05 03:44 | 40.78860 | -111.96005 | 4225 ft | 27 kts | 360° |
| 2026-05-05 03:45 | 40.79055 | -111.96004 | 4224 ft | 28 kts | 360° |
| 2026-05-05 03:45 | 40.79258 | -111.96003 | 4223 ft | 29 kts | 0° |
| 2026-05-05 03:45 | 40.79466 | -111.96004 | 4223 ft | 30 kts | 360° |
| 2026-05-05 03:45 | 40.79668 | -111.96003 | 4224 ft | 24 kts | 0° |
| 2026-05-05 03:46 | 40.79823 | -111.96002 | 4224 ft | 17 kts | 0° |
| 2026-05-05 03:46 | 40.79848 | -111.96002 | 4224 ft | 0 kts | 0° |
| 2026-05-05 03:46 | 40.79850 | -111.96002 | 4224 ft | 2 kts | 358° |
| 2026-05-05 03:47 | 40.79876 | -111.96010 | 4225 ft | 4 kts | 336° |
| 2026-05-05 03:47 | 40.79889 | -111.96042 | 4225 ft | 0 kts | 269° |
| 2026-05-05 03:47 | 40.79889 | -111.96043 | 4225 ft | 0 kts | 269° |
| 2026-05-05 03:47 | 40.79888 | -111.96086 | 4225 ft | 8 kts | 268° |
| 2026-05-05 03:48 | 40.79865 | -111.96166 | 4225 ft | 10 kts | 225° |
| 2026-05-05 03:48 | 40.79811 | -111.96210 | 4225 ft | 6 kts | 173° |
| 2026-05-05 03:48 | 40.79802 | -111.96209 | 4225 ft | 0 kts | 180° |
| 2026-05-05 03:49 | 40.79801 | -111.96209 | 4225 ft | 1 kts | 180° |
| 2026-05-05 03:49 | 40.79601 | -111.96209 | 4224 ft | 73 kts | 181° |
| 2026-05-05 03:49 | 40.78758 | -111.96206 | 4231 ft | 161 kts | 179° |
| 2026-05-05 03:49 | 40.77524 | -111.96186 | 4800 ft | 189 kts | 180° |
| 2026-05-05 03:50 | 40.76176 | -111.96388 | 5704 ft | 204 kts | 181° |
| 2026-05-05 03:50 | 40.74756 | -111.96213 | 6744 ft | 209 kts | 173° |
| 2026-05-05 03:50 | 40.73376 | -111.96008 | 7933 ft | 204 kts | 176° |
| 2026-05-05 03:50 | 40.71923 | -111.95950 | 8735 ft | 221 kts | 179° |
| 2026-05-05 03:51 | 40.70278 | -111.95946 | 9401 ft | 251 kts | 180° |
| 2026-05-05 03:51 | 40.68477 | -111.95948 | 10266 ft | 271 kts | 180° |
| 2026-05-05 03:51 | 40.66579 | -111.95949 | 11362 ft | 280 kts | 180° |
| 2026-05-05 03:51 | 40.64623 | -111.95950 | 12493 ft | 287 kts | 180° |
| 2026-05-05 03:52 | 40.62578 | -111.95950 | 13334 ft | 304 kts | 180° |
| 2026-05-05 03:52 | 40.60429 | -111.95951 | 14252 ft | 315 kts | 180° |
| 2026-05-05 03:52 | 40.58224 | -111.95953 | 15249 ft | 322 kts | 180° |
| 2026-05-05 03:52 | 40.55951 | -111.95953 | 16262 ft | 327 kts | 180° |
| 2026-05-05 03:53 | 40.53669 | -111.95954 | 17205 ft | 332 kts | 180° |
| 2026-05-05 03:53 | 40.51350 | -111.95956 | 18120 ft | 338 kts | 180° |
| 2026-05-05 03:53 | 40.48988 | -111.95956 | 19048 ft | 343 kts | 180° |
| 2026-05-05 03:53 | 40.46560 | -111.95958 | 19788 ft | 352 kts | 180° |
| 2026-05-05 03:54 | 40.44083 | -111.95959 | 20664 ft | 357 kts | 180° |
| 2026-05-05 03:54 | 40.41601 | -111.95959 | 21608 ft | 358 kts | 180° |
| 2026-05-05 03:54 | 40.39121 | -111.95961 | 22458 ft | 361 kts | 180° |
| 2026-05-05 03:54 | 40.36595 | -111.95962 | 23236 ft | 365 kts | 180° |
| 2026-05-05 03:55 | 40.34036 | -111.95963 | 23989 ft | 370 kts | 180° |
| 2026-05-05 03:55 | 40.31463 | -111.95964 | 24721 ft | 374 kts | 180° |
| 2026-05-05 03:55 | 40.28837 | -111.95966 | 25350 ft | 381 kts | 180° |
| 2026-05-05 03:55 | 40.26149 | -111.95967 | 25835 ft | 391 kts | 180° |
| 2026-05-05 03:56 | 40.23407 | -111.95968 | 26377 ft | 397 kts | 180° |
| 2026-05-05 03:56 | 40.20625 | -111.95969 | 26960 ft | 402 kts | 180° |
| 2026-05-05 03:56 | 40.17812 | -111.95970 | 27545 ft | 405 kts | 180° |
| 2026-05-05 03:56 | 40.14977 | -111.95972 | 28109 ft | 409 kts | 180° |
| 2026-05-05 03:57 | 40.12094 | -111.96162 | 28650 ft | 412 kts | 186° |
| 2026-05-05 03:57 | 40.09244 | -111.96580 | 29150 ft | 416 kts | 186° |
| 2026-05-05 03:57 | 40.06314 | -111.97013 | 29645 ft | 419 kts | 186° |
| 2026-05-05 03:57 | 40.03382 | -111.97444 | 30146 ft | 421 kts | 187° |
| 2026-05-05 03:58 | 40.00382 | -111.97884 | 30758 ft | 419 kts | 188° |
| 2026-05-05 03:58 | 39.97495 | -111.98308 | 31328 ft | 415 kts | 189° |
| 2026-05-05 03:58 | 39.94580 | -111.98734 | 31863 ft | 412 kts | 190° |
| 2026-05-05 03:58 | 39.91677 | -111.99159 | 32367 ft | 410 kts | 191° |
| 2026-05-05 03:59 | 39.88837 | -111.99574 | 32678 ft | 412 kts | 191° |
| 2026-05-05 03:59 | 39.85931 | -112.00000 | 32955 ft | 416 kts | 191° |
| 2026-05-05 03:59 | 39.83047 | -112.00422 | 33220 ft | 419 kts | 192° |
| 2026-05-05 03:59 | 39.80151 | -112.00845 | 33496 ft | 420 kts | 192° |
| 2026-05-05 04:00 | 39.77228 | -112.01269 | 33916 ft | 420 kts | 192° |
| 2026-05-05 04:00 | 39.74316 | -112.01691 | 34465 ft | 416 kts | 192° |
| 2026-05-05 04:00 | 39.71442 | -112.02106 | 35066 ft | 410 kts | 193° |
| 2026-05-05 04:00 | 39.68610 | -112.02515 | 35579 ft | 406 kts | 193° |
| 2026-05-05 04:01 | 39.65801 | -112.02921 | 36094 ft | 402 kts | 193° |
| 2026-05-05 04:01 | 39.63018 | -112.03323 | 36530 ft | 400 kts | 193° |
| 2026-05-05 04:01 | 39.60260 | -112.03723 | 36878 ft | 399 kts | 193° |
| 2026-05-05 04:01 | 39.57506 | -112.04121 | 37221 ft | 398 kts | 193° |
| 2026-05-05 04:02 | 39.54767 | -112.04517 | 37579 ft | 396 kts | 193° |
| 2026-05-05 04:02 | 39.51999 | -112.04917 | 37907 ft | 395 kts | 194° |
| 2026-05-05 04:02 | 39.49280 | -112.05309 | 38219 ft | 393 kts | 193° |
| 2026-05-05 04:02 | 39.46538 | -112.05704 | 38505 ft | 393 kts | 194° |
| 2026-05-05 04:03 | 39.43858 | -112.06087 | 38809 ft | 391 kts | 194° |
| 2026-05-05 04:03 | 39.41137 | -112.06472 | 39149 ft | 388 kts | 194° |
| 2026-05-05 04:03 | 39.38446 | -112.06854 | 39462 ft | 386 kts | 194° |
| 2026-05-05 04:03 | 39.35796 | -112.07231 | 39623 ft | 387 kts | 194° |
| 2026-05-05 04:04 | 39.30425 | -112.07996 | 39952 ft | 388 kts | 194° |
| 2026-05-05 04:04 | 39.24980 | -112.08770 | 39953 ft | 393 kts | 194° |
| 2026-05-05 04:05 | 39.19558 | -112.09537 | 39950 ft | 394 kts | 194° |
| 2026-05-05 04:05 | 39.14178 | -112.10624 | 39941 ft | 382 kts | 203° |
| 2026-05-05 04:06 | 39.09433 | -112.13319 | 39938 ft | 370 kts | 215° |
| 2026-05-05 04:06 | 39.04968 | -112.16585 | 39944 ft | 368 kts | 214° |
| 2026-05-05 04:07 | 39.00530 | -112.19823 | 39944 ft | 367 kts | 215° |
| 2026-05-05 04:07 | 38.96085 | -112.23061 | 39955 ft | 366 kts | 215° |
| 2026-05-05 04:08 | 38.91622 | -112.26305 | 39957 ft | 366 kts | 215° |
| 2026-05-05 04:08 | 38.87126 | -112.29572 | 39957 ft | 373 kts | 214° |
| 2026-05-05 04:09 | 38.82562 | -112.32883 | 39956 ft | 378 kts | 215° |
| 2026-05-05 04:09 | 38.77966 | -112.36209 | 39968 ft | 383 kts | 214° |
| 2026-05-05 04:10 | 38.73293 | -112.39585 | 39984 ft | 387 kts | 214° |
| 2026-05-05 04:10 | 38.68560 | -112.43000 | 39990 ft | 391 kts | 214° |
| 2026-05-05 04:11 | 38.63800 | -112.46429 | 39999 ft | 395 kts | 214° |
| 2026-05-05 04:11 | 38.58969 | -112.49904 | 39999 ft | 400 kts | 214° |
| 2026-05-05 04:12 | 38.54100 | -112.53400 | 40003 ft | 403 kts | 214° |
| 2026-05-05 04:12 | 38.49178 | -112.56928 | 39998 ft | 406 kts | 213° |
| 2026-05-05 04:13 | 38.44235 | -112.60465 | 39988 ft | 405 kts | 214° |
| 2026-05-05 04:13 | 38.39289 | -112.63998 | 39994 ft | 404 kts | 214° |
| 2026-05-05 04:14 | 38.34376 | -112.67502 | 39975 ft | 405 kts | 214° |
| 2026-05-05 04:14 | 38.29431 | -112.71025 | 39972 ft | 405 kts | 214° |
| 2026-05-05 04:15 | 38.24486 | -112.74541 | 39988 ft | 404 kts | 213° |
| 2026-05-05 04:15 | 38.19579 | -112.78025 | 39977 ft | 403 kts | 213° |
| 2026-05-05 04:16 | 38.14693 | -112.81489 | 39975 ft | 402 kts | 214° |
| 2026-05-05 04:16 | 38.09794 | -112.84957 | 39987 ft | 401 kts | 214° |
| 2026-05-05 04:17 | 38.04911 | -112.88409 | 39988 ft | 400 kts | 213° |
| 2026-05-05 04:17 | 38.00041 | -112.91846 | 39991 ft | 400 kts | 214° |
| 2026-05-05 04:18 | 37.95130 | -112.95307 | 39988 ft | 400 kts | 213° |
| 2026-05-05 04:18 | 37.90230 | -112.98755 | 39986 ft | 399 kts | 213° |
| 2026-05-05 04:19 | 37.85377 | -113.02164 | 39986 ft | 398 kts | 214° |
| 2026-05-05 04:19 | 37.80473 | -113.05603 | 39977 ft | 400 kts | 213° |
| 2026-05-05 04:20 | 37.75628 | -113.09088 | 39970 ft | 400 kts | 214° |
| 2026-05-05 04:20 | 37.70779 | -113.12647 | 39968 ft | 399 kts | 214° |
| 2026-05-05 04:21 | 37.66007 | -113.16142 | 39969 ft | 398 kts | 214° |
| 2026-05-05 04:21 | 37.61199 | -113.19658 | 39986 ft | 398 kts | 214° |
| 2026-05-05 04:22 | 37.56389 | -113.23171 | 39990 ft | 401 kts | 214° |
| 2026-05-05 04:22 | 37.51525 | -113.26717 | 39978 ft | 404 kts | 213° |
| 2026-05-05 04:23 | 37.46625 | -113.30283 | 39983 ft | 404 kts | 214° |
| 2026-05-05 04:23 | 37.41736 | -113.33834 | 39989 ft | 405 kts | 214° |
| 2026-05-05 04:24 | 37.36853 | -113.37375 | 39987 ft | 405 kts | 213° |
| 2026-05-05 04:25 | 37.29514 | -113.42690 | 39990 ft | 403 kts | 213° |
| 2026-05-05 04:25 | 37.24660 | -113.46196 | 39978 ft | 403 kts | 213° |
| 2026-05-05 04:26 | 37.19782 | -113.49715 | 39955 ft | 402 kts | 214° |
| 2026-05-05 04:26 | 37.14910 | -113.53223 | 39941 ft | 401 kts | 214° |
| 2026-05-05 04:27 | 37.10075 | -113.56701 | 39938 ft | 400 kts | 214° |
| 2026-05-05 04:27 | 37.05242 | -113.60172 | 39928 ft | 401 kts | 214° |
| 2026-05-05 04:28 | 37.00372 | -113.63664 | 39920 ft | 400 kts | 214° |
| 2026-05-05 04:28 | 36.95533 | -113.67130 | 39936 ft | 400 kts | 214° |
| 2026-05-05 04:29 | 36.90695 | -113.70588 | 39943 ft | 400 kts | 213° |
| 2026-05-05 04:29 | 36.85869 | -113.74034 | 39956 ft | 400 kts | 213° |
| 2026-05-05 04:30 | 36.81020 | -113.77491 | 39936 ft | 401 kts | 213° |
| 2026-05-05 04:30 | 36.76146 | -113.80960 | 39937 ft | 400 kts | 213° |
| 2026-05-05 04:31 | 36.71318 | -113.84391 | 39937 ft | 400 kts | 213° |
| 2026-05-05 04:31 | 36.66445 | -113.87849 | 39925 ft | 399 kts | 213° |
| 2026-05-05 04:32 | 36.61614 | -113.91273 | 39927 ft | 399 kts | 213° |
| 2026-05-05 04:32 | 36.56772 | -113.94700 | 39914 ft | 399 kts | 213° |
| 2026-05-05 04:33 | 36.51946 | -113.98109 | 39926 ft | 399 kts | 213° |
| 2026-05-05 04:33 | 36.47068 | -114.01551 | 39915 ft | 398 kts | 213° |
| 2026-05-05 04:34 | 36.42251 | -114.04945 | 39908 ft | 398 kts | 213° |
| 2026-05-05 04:34 | 36.37420 | -114.08344 | 39906 ft | 398 kts | 213° |
| 2026-05-05 04:35 | 36.32593 | -114.11735 | 39899 ft | 399 kts | 213° |
| 2026-05-05 04:35 | 36.27757 | -114.15128 | 39898 ft | 400 kts | 213° |
| 2026-05-05 04:36 | 36.22908 | -114.18525 | 39906 ft | 399 kts | 213° |
| 2026-05-05 04:36 | 36.18077 | -114.21905 | 39897 ft | 399 kts | 213° |
| 2026-05-05 04:37 | 36.13179 | -114.25326 | 39898 ft | 400 kts | 213° |
| 2026-05-05 04:37 | 36.08511 | -114.28989 | 39889 ft | 397 kts | 222° |
| 2026-05-05 04:38 | 36.04680 | -114.33944 | 39877 ft | 396 kts | 228° |
| 2026-05-05 04:38 | 36.01008 | -114.39030 | 39874 ft | 397 kts | 228° |
| 2026-05-05 04:39 | 35.97304 | -114.44154 | 39873 ft | 397 kts | 228° |
| 2026-05-05 04:39 | 35.93642 | -114.49212 | 39885 ft | 397 kts | 228° |
| 2026-05-05 04:40 | 35.89935 | -114.54324 | 39878 ft | 398 kts | 228° |
| 2026-05-05 04:40 | 35.86226 | -114.59433 | 39878 ft | 399 kts | 228° |
| 2026-05-05 04:41 | 35.82523 | -114.64525 | 39874 ft | 399 kts | 228° |
| 2026-05-05 04:41 | 35.78791 | -114.69651 | 39874 ft | 399 kts | 228° |
| 2026-05-05 04:42 | 35.75025 | -114.74815 | 39864 ft | 400 kts | 228° |
| 2026-05-05 04:42 | 35.71292 | -114.79927 | 39876 ft | 400 kts | 228° |
| 2026-05-05 04:43 | 35.67563 | -114.85025 | 39880 ft | 400 kts | 228° |
| 2026-05-05 04:43 | 35.63857 | -114.90096 | 39879 ft | 400 kts | 227° |
| 2026-05-05 04:44 | 35.60100 | -114.95234 | 39879 ft | 401 kts | 227° |
| 2026-05-05 04:44 | 35.56324 | -115.00391 | 39891 ft | 402 kts | 228° |
| 2026-05-05 04:45 | 35.52489 | -115.05339 | 39910 ft | 401 kts | 221° |
| 2026-05-05 04:45 | 35.47745 | -115.09103 | 39913 ft | 407 kts | 208° |
| 2026-05-05 04:46 | 35.42366 | -115.11499 | 39905 ft | 411 kts | 204° |
| 2026-05-05 04:46 | 35.36946 | -115.13757 | 39916 ft | 411 kts | 203° |
| 2026-05-05 04:47 | 35.31488 | -115.16029 | 39917 ft | 410 kts | 204° |
| 2026-05-05 04:47 | 35.26059 | -115.18289 | 39929 ft | 410 kts | 204° |
| 2026-05-05 04:48 | 35.20635 | -115.20544 | 39925 ft | 410 kts | 204° |
| 2026-05-05 04:48 | 35.15260 | -115.22775 | 39919 ft | 410 kts | 204° |
| 2026-05-05 04:49 | 35.09679 | -115.24521 | 39909 ft | 415 kts | 198° |
| 2026-05-05 04:49 | 35.04012 | -115.26045 | 39928 ft | 415 kts | 198° |
| 2026-05-05 04:50 | 34.98335 | -115.27574 | 39918 ft | 414 kts | 198° |
| 2026-05-05 04:50 | 34.92635 | -115.29111 | 39919 ft | 414 kts | 199° |
| 2026-05-05 04:51 | 34.86995 | -115.30630 | 39916 ft | 414 kts | 199° |
| 2026-05-05 04:51 | 34.81371 | -115.32146 | 39907 ft | 413 kts | 198° |
| 2026-05-05 04:52 | 34.75822 | -115.33926 | 39904 ft | 408 kts | 204° |
| 2026-05-05 04:52 | 34.70425 | -115.36149 | 39894 ft | 409 kts | 204° |
| 2026-05-05 04:53 | 34.65011 | -115.38365 | 39887 ft | 408 kts | 204° |
| 2026-05-05 04:53 | 34.59596 | -115.40576 | 39901 ft | 408 kts | 204° |
| 2026-05-05 04:54 | 34.54224 | -115.42765 | 39890 ft | 407 kts | 204° |
| 2026-05-05 04:54 | 34.48857 | -115.44948 | 39889 ft | 406 kts | 204° |
| 2026-05-05 04:55 | 34.43480 | -115.47131 | 39878 ft | 407 kts | 204° |
| 2026-05-05 04:55 | 34.38075 | -115.49336 | 39885 ft | 405 kts | 205° |
| 2026-05-05 04:56 | 34.33167 | -115.52493 | 39908 ft | 399 kts | 215° |
| 2026-05-05 04:56 | 34.28415 | -115.56010 | 39902 ft | 399 kts | 215° |
| 2026-05-05 04:57 | 34.23660 | -115.59522 | 39910 ft | 398 kts | 214° |
| 2026-05-05 04:57 | 34.18706 | -115.62625 | 39532 ft | 405 kts | 207° |
| 2026-05-05 04:57 | 34.16080 | -115.63854 | 38992 ft | 399 kts | 207° |
| 2026-05-05 04:58 | 34.13508 | -115.65061 | 38573 ft | 395 kts | 206° |
| 2026-05-05 04:58 | 34.10940 | -115.66269 | 38018 ft | 394 kts | 206° |
| 2026-05-05 04:58 | 34.08386 | -115.67469 | 37551 ft | 390 kts | 206° |
| 2026-05-05 04:58 | 34.05856 | -115.68658 | 37009 ft | 388 kts | 207° |
| 2026-05-05 04:59 | 34.03351 | -115.69836 | 36517 ft | 387 kts | 206° |
| 2026-05-05 04:59 | 34.00839 | -115.71017 | 35994 ft | 385 kts | 207° |
| 2026-05-05 04:59 | 33.98339 | -115.72192 | 35484 ft | 385 kts | 207° |
| 2026-05-05 04:59 | 33.95842 | -115.73364 | 34977 ft | 384 kts | 207° |
| 2026-05-05 05:00 | 33.93348 | -115.74537 | 34469 ft | 383 kts | 207° |
| 2026-05-05 05:00 | 33.90875 | -115.75716 | 33950 ft | 382 kts | 207° |
| 2026-05-05 05:00 | 33.88405 | -115.76929 | 33458 ft | 382 kts | 207° |
| 2026-05-05 05:00 | 33.85949 | -115.78134 | 32971 ft | 381 kts | 207° |
| 2026-05-05 05:01 | 33.83471 | -115.79348 | 32461 ft | 378 kts | 207° |
| 2026-05-05 05:01 | 33.81065 | -115.80527 | 31972 ft | 373 kts | 207° |
| 2026-05-05 05:01 | 33.78663 | -115.81702 | 31471 ft | 369 kts | 207° |
| 2026-05-05 05:01 | 33.76326 | -115.82835 | 31001 ft | 365 kts | 207° |
| 2026-05-05 05:02 | 33.73960 | -115.83945 | 30523 ft | 361 kts | 206° |
| 2026-05-05 05:02 | 33.71605 | -115.85047 | 30020 ft | 361 kts | 206° |
| 2026-05-05 05:02 | 33.69286 | -115.86134 | 29547 ft | 361 kts | 207° |
| 2026-05-05 05:02 | 33.66957 | -115.87224 | 29075 ft | 360 kts | 206° |
| 2026-05-05 05:03 | 33.64602 | -115.88326 | 28593 ft | 359 kts | 206° |
| 2026-05-05 05:03 | 33.62283 | -115.89410 | 28121 ft | 358 kts | 206° |
| 2026-05-05 05:03 | 33.59967 | -115.90492 | 27640 ft | 358 kts | 206° |
| 2026-05-05 05:03 | 33.57639 | -115.91579 | 27149 ft | 359 kts | 206° |
| 2026-05-05 05:04 | 33.55309 | -115.92667 | 26673 ft | 360 kts | 206° |
| 2026-05-05 05:04 | 33.52980 | -115.93818 | 26186 ft | 358 kts | 211° |
| 2026-05-05 05:04 | 33.51010 | -115.95536 | 25710 ft | 355 kts | 226° |
| 2026-05-05 05:04 | 33.49494 | -115.97897 | 25251 ft | 356 kts | 234° |
| 2026-05-05 05:05 | 33.48100 | -116.00321 | 24803 ft | 357 kts | 234° |
| 2026-05-05 05:05 | 33.46680 | -116.02770 | 24375 ft | 358 kts | 235° |
| 2026-05-05 05:05 | 33.45250 | -116.05235 | 23935 ft | 359 kts | 234° |
| 2026-05-05 05:05 | 33.43832 | -116.07679 | 23468 ft | 361 kts | 235° |
| 2026-05-05 05:06 | 33.42400 | -116.10146 | 23015 ft | 361 kts | 235° |
| 2026-05-05 05:06 | 33.40950 | -116.12642 | 22590 ft | 362 kts | 234° |
| 2026-05-05 05:06 | 33.39521 | -116.15098 | 22138 ft | 363 kts | 234° |
| 2026-05-05 05:06 | 33.38069 | -116.17593 | 21694 ft | 362 kts | 235° |
| 2026-05-05 05:07 | 33.36644 | -116.20041 | 21248 ft | 362 kts | 234° |
| 2026-05-05 05:07 | 33.35192 | -116.22533 | 20806 ft | 360 kts | 234° |
| 2026-05-05 05:07 | 33.33550 | -116.24796 | 20365 ft | 359 kts | 221° |
| 2026-05-05 05:07 | 33.31428 | -116.26389 | 19904 ft | 362 kts | 209° |
| 2026-05-05 05:08 | 33.29182 | -116.27698 | 19465 ft | 361 kts | 208° |
| 2026-05-05 05:08 | 33.26914 | -116.29026 | 19000 ft | 361 kts | 208° |
| 2026-05-05 05:08 | 33.24673 | -116.30340 | 18561 ft | 360 kts | 208° |
| 2026-05-05 05:08 | 33.22419 | -116.31660 | 18122 ft | 359 kts | 208° |
| 2026-05-05 05:09 | 33.20160 | -116.32982 | 17673 ft | 359 kts | 208° |
| 2026-05-05 05:09 | 33.17931 | -116.34286 | 17226 ft | 358 kts | 208° |
| 2026-05-05 05:09 | 33.15669 | -116.35609 | 16779 ft | 357 kts | 208° |
| 2026-05-05 05:09 | 33.13441 | -116.36911 | 16334 ft | 355 kts | 208° |
| 2026-05-05 05:10 | 33.11232 | -116.38203 | 15898 ft | 354 kts | 208° |
| 2026-05-05 05:10 | 33.09009 | -116.39500 | 15459 ft | 352 kts | 208° |
| 2026-05-05 05:10 | 33.06833 | -116.40771 | 15023 ft | 351 kts | 208° |
| 2026-05-05 05:10 | 33.04631 | -116.42055 | 14584 ft | 350 kts | 208° |
| 2026-05-05 05:11 | 33.02503 | -116.43295 | 14133 ft | 332 kts | 208° |
| 2026-05-05 05:11 | 33.00490 | -116.44550 | 13814 ft | 316 kts | 214° |
| 2026-05-05 05:11 | 32.98775 | -116.46169 | 13363 ft | 312 kts | 222° |
| 2026-05-05 05:11 | 32.97154 | -116.47825 | 13002 ft | 308 kts | 221° |
| 2026-05-05 05:12 | 32.95504 | -116.49499 | 12617 ft | 308 kts | 221° |
| 2026-05-05 05:12 | 32.93892 | -116.51132 | 12247 ft | 306 kts | 221° |
| 2026-05-05 05:12 | 32.92254 | -116.52791 | 11852 ft | 304 kts | 221° |
| 2026-05-05 05:12 | 32.90654 | -116.54409 | 11475 ft | 303 kts | 221° |
| 2026-05-05 05:13 | 32.89043 | -116.56037 | 11106 ft | 302 kts | 221° |
| 2026-05-05 05:13 | 32.87438 | -116.57658 | 10733 ft | 300 kts | 221° |
| 2026-05-05 05:13 | 32.85839 | -116.59272 | 10346 ft | 299 kts | 221° |
| 2026-05-05 05:13 | 32.84260 | -116.60864 | 9985 ft | 298 kts | 221° |
| 2026-05-05 05:14 | 32.82690 | -116.62448 | 9618 ft | 296 kts | 221° |
| 2026-05-05 05:14 | 32.81127 | -116.64024 | 9254 ft | 290 kts | 222° |
| 2026-05-05 05:14 | 32.79603 | -116.65560 | 8864 ft | 284 kts | 221° |
| 2026-05-05 05:14 | 32.78102 | -116.67075 | 8468 ft | 278 kts | 223° |
| 2026-05-05 05:15 | 32.76897 | -116.68786 | 8156 ft | 268 kts | 240° |
| 2026-05-05 05:15 | 32.76004 | -116.70692 | 7833 ft | 261 kts | 242° |
| 2026-05-05 05:15 | 32.75121 | -116.72571 | 7517 ft | 260 kts | 242° |
| 2026-05-05 05:15 | 32.74224 | -116.74475 | 7198 ft | 260 kts | 242° |
| 2026-05-05 05:16 | 32.73354 | -116.76321 | 6877 ft | 261 kts | 241° |
| 2026-05-05 05:16 | 32.72461 | -116.78213 | 6560 ft | 260 kts | 242° |
| 2026-05-05 05:16 | 32.71587 | -116.80062 | 6247 ft | 258 kts | 242° |
| 2026-05-05 05:16 | 32.70716 | -116.81950 | 5923 ft | 256 kts | 246° |
| 2026-05-05 05:17 | 32.70070 | -116.83901 | 5615 ft | 254 kts | 250° |
| 2026-05-05 05:17 | 32.69465 | -116.85873 | 5331 ft | 255 kts | 250° |
| 2026-05-05 05:17 | 32.68852 | -116.87859 | 5056 ft | 255 kts | 251° |
| 2026-05-05 05:17 | 32.68258 | -116.89861 | 4744 ft | 254 kts | 252° |
| 2026-05-05 05:18 | 32.67677 | -116.91850 | 4467 ft | 254 kts | 251° |
| 2026-05-05 05:18 | 32.67362 | -116.93889 | 4163 ft | 254 kts | 272° |
| 2026-05-05 05:18 | 32.67733 | -116.95934 | 3873 ft | 253 kts | 286° |
| 2026-05-05 05:18 | 32.68237 | -116.97951 | 3571 ft | 254 kts | 285° |
| 2026-05-05 05:19 | 32.68721 | -116.99918 | 3263 ft | 237 kts | 285° |
| 2026-05-05 05:19 | 32.69156 | -117.01685 | 3064 ft | 206 kts | 285° |
| 2026-05-05 05:19 | 32.69517 | -117.03148 | 3073 ft | 167 kts | 285° |
| 2026-05-05 05:19 | 32.69828 | -117.04414 | 3088 ft | 153 kts | 285° |
| 2026-05-05 05:20 | 32.70102 | -117.05544 | 3110 ft | 134 kts | 284° |
| 2026-05-05 05:20 | 32.70357 | -117.06611 | 3039 ft | 133 kts | 284° |
| 2026-05-05 05:20 | 32.70594 | -117.07681 | 2541 ft | 138 kts | 284° |
| 2026-05-05 05:20 | 32.70825 | -117.08760 | 2052 ft | 133 kts | 284° |
| 2026-05-05 05:21 | 32.71075 | -117.09777 | 1680 ft | 123 kts | 287° |
| 2026-05-05 05:21 | 32.71336 | -117.10744 | 1438 ft | 123 kts | 287° |
| 2026-05-05 05:21 | 32.71574 | -117.11714 | 1275 ft | 123 kts | 284° |
| 2026-05-05 05:21 | 32.71803 | -117.12693 | 1123 ft | 120 kts | 286° |
| 2026-05-05 05:22 | 32.72051 | -117.13650 | 966 ft | 121 kts | 287° |
| 2026-05-05 05:22 | 32.72299 | -117.14597 | 811 ft | 123 kts | 285° |
| 2026-05-05 05:22 | 32.72536 | -117.15580 | 639 ft | 123 kts | 285° |
| 2026-05-05 05:22 | 32.72776 | -117.16565 | 408 ft | 123 kts | 284° |
| 2026-05-05 05:23 | 32.73005 | -117.17542 | 161 ft | 123 kts | 285° |
| 2026-05-05 05:23 | 32.73238 | -117.18488 | 26 ft | 111 kts | 285° |